Time;durP1;ratioP1;P1;durP2;ratioP2;P2;SDS_P1;SDS_P2;PMS_P1;PMS_P2;Temp;Humidity;BMP_temperature;BMP_pressure;BME280_temperature;BME280_humidity;BME280_pressure;Samples;Min_cycle;Max_cycle;Signal;HPM_P1;HPM_P2
2024/04/19 00:00:26;;;;;;;6.53;5.10;;;;;;;6.73;69.36;96839.25;5243481;27;20014;-74
2024/04/19 00:02:58;;;;;;;6.50;5.65;;;;;;;6.72;69.69;96836.84;5243757;27;20003;-74
2024/04/19 00:05:25;;;;;;;5.88;5.28;;;;;;;6.73;69.95;96831.50;5243236;27;20027;-74
2024/04/19 00:07:54;;;;;;;6.20;5.22;;;;;;;6.72;69.18;96829.88;5243041;27;20011;-74
2024/04/19 00:10:21;;;;;;;5.93;4.55;;;;;;;6.69;68.50;96821.56;5243283;27;20336;-74
2024/04/19 00:12:51;;;;;;;6.82;5.32;;;;;;;6.69;69.18;96824.16;5243587;27;20003;-74
2024/04/19 00:15:17;;;;;;;7.10;5.18;;;;;;;6.69;69.91;96819.00;5242746;27;20032;-74
2024/04/19 00:17:47;;;;;;;5.70;5.10;;;;;;;6.69;68.77;96819.00;5242624;27;20340;-74
2024/04/19 00:20:17;;;;;;;6.72;4.50;;;;;;;6.66;68.89;96816.72;5243235;27;20031;-74
2024/04/19 00:22:46;;;;;;;6.43;4.78;;;;;;;6.63;68.09;96817.03;5243298;27;20007;-74
2024/04/19 00:25:13;;;;;;;5.40;4.50;;;;;;;6.64;68.80;96814.25;5242500;27;20015;-74
2024/04/19 00:27:43;;;;;;;7.97;5.22;;;;;;;6.62;68.32;96817.97;5242899;27;20003;-74
2024/04/19 00:30:10;;;;;;;5.68;4.85;;;;;;;6.60;68.90;96818.94;5243235;27;20082;-74
2024/04/19 00:32:39;;;;;;;6.63;4.60;;;;;;;6.56;67.96;96809.03;5243114;27;20423;-74
2024/04/19 00:35:07;;;;;;;4.88;4.10;;;;;;;6.51;68.29;96809.47;5243044;27;20003;-73
2024/04/19 00:37:39;;;;;;;7.20;4.50;;;;;;;6.46;67.94;96806.53;5244585;27;20035;-74
2024/04/19 00:40:07;;;;;;;4.38;3.75;;;;;;;6.45;68.41;96815.28;5246682;27;20018;-74
2024/04/19 00:42:36;;;;;;;5.25;4.60;;;;;;;6.42;68.37;96812.16;5246211;27;20489;-74
2024/04/19 00:45:20;;;;;;;6.80;4.95;;;;;;;6.40;70.61;96813.09;5245797;27;20467;-74
2024/04/19 00:47:50;;;;;;;5.47;4.45;;;;;;;6.42;68.59;96814.75;5245726;27;20018;-73
2024/04/19 00:50:17;;;;;;;5.82;4.95;;;;;;;6.39;68.58;96806.31;5246082;27;20003;-73
2024/04/19 00:52:49;;;;;;;5.43;4.28;;;;;;;6.38;67.95;96809.03;5246174;27;20035;-73
2024/04/19 00:55:17;;;;;;;4.90;4.07;;;;;;;6.36;67.88;96805.78;5250785;27;20015;-73
2024/04/19 00:57:48;;;;;;;4.10;3.70;;;;;;;6.36;68.72;96808.38;5264772;27;20013;-73
2024/04/19 01:00:15;;;;;;;6.30;4.82;;;;;;;6.39;69.37;96810.69;5261674;27;19999;-73
2024/04/19 01:02:45;;;;;;;6.43;3.95;;;;;;;6.40;68.72;96801.94;5248213;27;20018;-73
2024/04/19 01:05:12;;;;;;;4.93;4.40;;;;;;;6.38;68.81;96811.63;5246228;27;20010;-73
2024/04/19 01:07:41;;;;;;;5.00;4.32;;;;;;;6.36;68.24;96811.81;5245812;27;20566;-73
2024/04/19 01:10:11;;;;;;;6.82;4.30;;;;;;;6.34;68.08;96808.56;5245884;27;20031;-73
2024/04/19 01:12:40;;;;;;;5.50;4.18;;;;;;;6.32;68.17;96800.13;5246124;27;20014;-73
2024/04/19 01:15:14;;;;;;;4.75;4.18;;;;;;;6.28;68.24;96792.78;5246365;27;20053;-73
2024/04/19 01:17:43;;;;;;;5.03;4.50;;;;;;;6.27;68.56;96794.53;5247154;27;20017;-73
2024/04/19 01:20:10;;;;;;;4.60;4.20;;;;;;;6.29;68.25;96794.41;5247165;27;20011;-74
2024/04/19 01:22:41;;;;;;;4.93;3.90;;;;;;;6.28;69.06;96787.63;5252981;27;20023;-73
2024/04/19 01:25:15;;;;;;;5.97;4.25;;;;;;;6.32;69.85;96791.50;5266888;27;20011;-73
2024/04/19 01:27:47;;;;;;;5.07;4.10;;;;;;;6.36;70.62;96795.44;5266363;27;19992;-73
2024/04/19 01:30:14;;;;;;;5.57;4.85;;;;;;;6.36;68.50;96787.66;5265410;27;20006;-73
2024/04/19 01:32:43;;;;;;;6.25;4.60;;;;;;;6.31;68.41;96790.69;5247166;27;20495;-73
2024/04/19 01:35:10;;;;;;;6.78;5.13;;;;;;;6.26;67.81;96789.53;5245664;27;20043;-73
2024/04/19 01:37:39;;;;;;;9.10;5.07;;;;;;;6.22;68.06;96785.63;5245726;27;20086;-73
2024/04/19 01:40:07;;;;;;;5.07;4.15;;;;;;;6.22;68.13;96788.22;5245773;27;20051;-74
2024/04/19 01:42:37;;;;;;;5.15;4.40;;;;;;;6.24;69.39;96789.69;5245630;27;20003;-74
2024/04/19 01:45:06;;;;;;;4.82;4.35;;;;;;;6.25;68.31;96782.72;5245620;27;20002;-74
2024/04/19 01:47:37;;;;;;;6.13;4.53;;;;;;;6.20;68.03;96775.41;5244958;27;20005;-73
2024/04/19 01:50:05;;;;;;;5.32;4.28;;;;;;;6.18;68.83;96774.72;5245378;27;20009;-73
2024/04/19 01:52:34;;;;;;;8.65;5.45;;;;;;;6.17;69.00;96771.34;5245403;27;20007;-73
2024/04/19 01:55:01;;;;;;;7.07;4.75;;;;;;;6.18;69.41;96757.41;5245303;27;20014;-73
2024/04/19 01:57:31;;;;;;;6.93;4.60;;;;;;;6.18;69.54;96765.19;5245839;27;20014;-73
2024/04/19 01:59:57;;;;;;;6.75;4.90;;;;;;;6.16;69.89;96758.53;5245465;27;20450;-73
2024/04/19 02:02:30;;;;;;;5.82;4.50;;;;;;;6.13;68.74;96764.00;5245262;27;20003;-74
2024/04/19 02:04:58;;;;;;;7.57;5.35;;;;;;;6.05;68.98;96758.75;5244844;27;20024;-73
2024/04/19 02:07:27;;;;;;;5.85;4.82;;;;;;;6.02;68.94;96756.47;5244524;27;20050;-73
2024/04/19 02:09:57;;;;;;;6.43;5.15;;;;;;;5.99;69.07;96760.16;5244810;27;20003;-73
2024/04/19 02:12:26;;;;;;;6.55;5.85;;;;;;;5.98;69.34;96750.78;5244899;27;20525;-73
2024/04/19 02:14:53;;;;;;;6.32;5.63;;;;;;;5.94;69.21;96747.66;5244844;27;20011;-73
2024/04/19 02:17:23;;;;;;;6.90;5.68;;;;;;;5.89;68.82;96747.28;5244649;27;20003;-73
2024/04/19 02:19:52;;;;;;;5.60;4.85;;;;;;;5.86;68.73;96749.34;5244932;27;20090;-73
2024/04/19 02:22:21;;;;;;;6.68;5.97;;;;;;;5.82;68.61;96742.84;5245182;27;20014;-74
2024/04/19 02:24:48;;;;;;;6.13;5.50;;;;;;;5.80;69.05;96735.22;5244846;27;20007;-73
2024/04/19 02:30:52;;;;;;;6.63;5.72;;;;;;;5.82;69.13;96735.09;5244245;27;20003;-73
2024/04/19 02:32:55;;;;;;;7.85;5.20;;;;;;;5.81;68.66;96720.50;5245196;27;19999;-73
2024/04/19 02:35:27;;;;;;;9.45;5.35;;;;;;;5.80;69.78;96717.09;5245196;27;20451;-73
2024/04/19 02:37:56;;;;;;;7.40;4.77;;;;;;;5.83;69.46;96711.63;5245372;27;20007;-73
2024/04/19 02:40:26;;;;;;;6.53;5.10;;;;;;;5.86;69.17;96711.34;5244862;27;20269;-73
2024/04/19 02:42:55;;;;;;;6.25;5.20;;;;;;;5.87;68.97;96707.78;5245335;27;20018;-73
2024/04/19 02:45:24;;;;;;;6.32;5.07;;;;;;;5.89;69.97;96707.63;5244275;27;20014;-73
2024/04/19 02:47:53;;;;;;;5.85;4.95;;;;;;;5.92;69.92;96709.91;5244549;27;20014;-73
2024/04/19 02:50:23;;;;;;;8.15;5.10;;;;;;;5.96;70.98;96701.72;5244276;27;20003;-73
2024/04/19 02:52:55;;;;;;;7.78;4.70;;;;;;;6.01;69.84;96708.22;5244351;27;20282;-73
2024/04/19 02:55:24;;;;;;;8.25;5.88;;;;;;;6.02;70.13;96705.50;5244399;27;20003;-73
2024/04/19 02:57:54;;;;;;;6.53;4.82;;;;;;;6.03;69.22;96701.13;5244348;27;20018;-75
2024/04/19 03:00:23;;;;;;;6.53;4.78;;;;;;;6.05;69.48;96705.19;5243326;27;20007;-73
2024/04/19 03:02:52;;;;;;;7.78;5.63;;;;;;;6.09;70.21;96703.94;5244394;27;20478;-73
2024/04/19 03:05:22;;;;;;;7.10;5.30;;;;;;;6.10;69.92;96692.63;5244247;27;20007;-74
2024/04/19 03:07:51;;;;;;;6.80;4.80;;;;;;;6.12;69.57;96684.66;5243841;27;20010;-73
2024/04/19 03:10:23;;;;;;;5.55;4.93;;;;;;;6.15;69.68;96677.44;5244171;27;19999;-74
2024/04/19 03:12:52;;;;;;;7.13;5.35;;;;;;;6.18;69.69;96677.09;5244703;27;20003;-74
2024/04/19 03:15:22;;;;;;;6.45;4.97;;;;;;;6.20;69.09;96676.97;5243860;27;20001;-73
2024/04/19 03:17:51;;;;;;;9.20;5.68;;;;;;;6.19;68.56;96670.19;5243856;27;20478;-73
2024/04/19 03:20:20;;;;;;;6.00;4.90;;;;;;;6.17;68.54;96672.09;5244272;27;19998;-74
2024/04/19 03:22:50;;;;;;;6.65;4.72;;;;;;;6.16;68.33;96676.44;5244044;27;20007;-74
2024/04/19 03:25:19;;;;;;;8.35;5.45;;;;;;;6.17;68.81;96670.31;5244050;27;20010;-74
2024/04/19 03:27:51;;;;;;;11.02;5.18;;;;;;;6.19;69.73;96667.59;5244003;27;20493;-73
2024/04/19 03:30:29;;;;;;;7.90;5.93;;;;;;;6.23;70.30;96670.66;5243986;27;20003;-73
2024/04/19 03:32:58;;;;;;;7.50;5.78;;;;;;;6.24;69.97;96657.56;5244315;27;20003;-73
2024/04/19 03:35:28;;;;;;;7.88;5.75;;;;;;;6.26;69.69;96665.19;5243898;27;20013;-73
2024/04/19 03:37:57;;;;;;;8.10;5.60;;;;;;;6.25;69.62;96656.59;5244045;27;20479;-74
2024/04/19 03:40:24;;;;;;;7.85;6.10;;;;;;;6.28;69.62;96647.72;5244017;27;20003;-73
2024/04/19 03:42:58;;;;;;;6.93;5.10;;;;;;;6.30;70.49;96641.41;5243638;27;20077;-73
2024/04/19 03:48:18;;;;;;;7.65;6.15;;;;;;;6.33;69.85;96637.69;5218797;27;20006;-73
2024/04/19 03:50:48;;;;;;;7.78;5.80;;;;;;;6.32;68.95;96643.84;5243964;27;20471;-73
2024/04/19 03:53:17;;;;;;;6.60;5.28;;;;;;;6.30;69.34;96643.19;5243772;27;20006;-73
2024/04/19 03:55:47;;;;;;;7.80;5.40;;;;;;;6.27;69.70;96640.91;5243021;27;20022;-73
2024/04/19 03:58:19;;;;;;;8.00;5.28;;;;;;;6.25;70.33;96635.88;5243597;27;20010;-74
2024/04/19 04:00:49;;;;;;;8.00;5.30;;;;;;;6.25;69.08;96633.28;5243776;27;20014;-73
2024/04/19 04:03:18;;;;;;;5.63;4.93;;;;;;;6.24;69.08;96639.44;5243930;27;20003;-73
2024/04/19 04:05:52;;;;;;;6.60;4.88;;;;;;;6.23;69.08;96635.22;5243077;27;20451;-73
2024/04/19 04:08:22;;;;;;;5.78;4.80;;;;;;;6.22;69.09;96627.59;5243414;27;20003;-73
2024/04/19 04:10:51;;;;;;;6.72;5.28;;;;;;;6.18;68.32;96625.31;5242188;27;20010;-74
2024/04/19 04:13:23;;;;;;;9.52;5.38;;;;;;;6.15;68.41;96628.22;5243236;27;20009;-73
2024/04/19 04:15:52;;;;;;;6.35;4.97;;;;;;;6.14;68.67;96628.34;5242824;27;20014;-73
2024/04/19 04:18:22;;;;;;;6.22;4.47;;;;;;;6.14;68.52;96624.00;5243338;27;20017;-73
2024/04/19 04:20:49;;;;;;;10.65;5.75;;;;;;;6.15;68.84;96627.41;5243667;27;20071;-73
2024/04/19 04:23:18;;;;;;;6.25;4.45;;;;;;;6.16;69.13;96621.25;5243587;27;20017;-73
2024/04/19 04:25:47;;;;;;;5.35;4.50;;;;;;;6.17;68.10;96615.94;5242903;27;20014;-74
2024/04/19 04:28:16;;;;;;;7.68;4.95;;;;;;;6.13;67.53;96624.97;5245243;27;20003;-73
2024/04/19 04:30:49;;;;;;;6.40;4.88;;;;;;;6.12;67.96;96617.34;5243788;27;20007;-73
2024/04/19 04:33:19;;;;;;;8.50;5.25;;;;;;;6.13;68.12;96612.00;5248978;27;20007;-74
2024/04/19 04:35:49;;;;;;;7.65;5.60;;;;;;;6.15;68.61;96612.69;5260114;27;20015;-73
2024/04/19 04:38:18;;;;;;;9.98;5.45;;;;;;;6.16;67.80;96609.09;5253223;27;20003;-73
2024/04/19 04:40:47;;;;;;;7.57;4.85;;;;;;;6.17;68.29;96605.56;5244045;27;20003;-74
2024/04/19 04:43:17;;;;;;;15.43;8.88;;;;;;;6.17;68.49;96612.53;5243527;27;20266;-73
2024/04/19 04:45:49;;;;;;;37.13;20.08;;;;;;;6.19;68.67;96608.81;5243167;27;20104;-73
2024/04/19 04:48:19;;;;;;;8.95;4.78;;;;;;;6.22;67.92;96607.69;5243782;27;20342;-73
2024/04/19 04:50:48;;;;;;;8.10;5.72;;;;;;;6.22;68.04;96606.88;5243133;27;20031;-73
2024/04/19 04:53:17;;;;;;;7.95;5.65;;;;;;;6.21;67.18;96607.84;5243057;27;20475;-74
2024/04/19 04:55:47;;;;;;;7.97;5.57;;;;;;;6.21;67.55;96605.25;5242725;27;20506;-74
2024/04/19 04:58:16;;;;;;;8.52;5.72;;;;;;;6.23;68.44;96603.31;5243114;27;20034;-73
2024/04/19 05:00:47;;;;;;;7.80;5.55;;;;;;;6.24;67.87;96595.41;5243251;27;20014;-74
2024/04/19 05:03:19;;;;;;;7.50;4.82;;;;;;;6.29;67.79;96605.28;5243636;27;20375;-75
2024/04/19 05:05:48;;;;;;;9.63;5.45;;;;;;;6.30;67.51;96606.94;5243643;27;20003;-73
2024/04/19 05:08:17;;;;;;;8.10;5.25;;;;;;;6.31;67.92;96605.94;5245533;27;20014;-73
2024/04/19 05:10:47;;;;;;;10.18;5.75;;;;;;;6.31;67.67;96611.13;5246665;27;20014;-74
2024/04/19 05:13:16;;;;;;;7.38;5.10;;;;;;;6.30;67.56;96612.91;5244975;27;20343;-73
2024/04/19 05:15:49;;;;;;;7.95;5.72;;;;;;;6.29;67.86;96613.06;5243276;27;20003;-73
2024/04/19 05:18:21;;;;;;;7.55;4.78;;;;;;;6.31;66.63;96611.13;5243366;27;20019;-73
2024/04/19 05:20:51;;;;;;;7.95;5.47;;;;;;;6.31;67.26;96600.78;5243762;27;20003;-74
2024/04/19 05:23:20;;;;;;;7.78;5.30;;;;;;;6.35;66.61;96602.09;5245726;27;20007;-73
2024/04/19 05:25:50;;;;;;;7.97;5.25;;;;;;;6.36;66.77;96603.69;5246942;27;20045;-73
2024/04/19 05:28:21;;;;;;;7.50;5.20;;;;;;;6.35;67.37;96589.94;5247245;27;20014;-73
2024/04/19 05:30:54;;;;;;;7.53;5.75;;;;;;;6.38;67.50;96591.41;5245872;27;20003;-73
2024/04/19 05:33:28;;;;;;;9.50;5.57;;;;;;;6.40;68.22;96595.47;5245525;27;20485;-73
2024/04/19 05:35:58;;;;;;;12.55;6.22;;;;;;;6.42;67.82;96587.53;5245397;27;20003;-73
2024/04/19 05:38:27;;;;;;;8.57;5.70;;;;;;;6.44;67.92;96585.59;5245823;27;20006;-73
2024/04/19 05:40:56;;;;;;;9.48;5.28;;;;;;;6.46;67.82;96575.91;5246047;27;20018;-73
2024/04/19 05:43:26;;;;;;;11.02;5.10;;;;;;;6.47;67.34;96579.28;5246021;27;20007;-73
2024/04/19 05:45:55;;;;;;;12.73;5.70;;;;;;;6.50;67.69;96582.41;5245356;27;20003;-73
2024/04/19 05:48:27;;;;;;;8.00;5.80;;;;;;;6.48;67.03;96581.75;5245598;27;20038;-73
2024/04/19 05:50:56;;;;;;;8.13;4.95;;;;;;;6.49;67.20;96578.16;5246346;27;20003;-75
2024/04/19 05:53:26;;;;;;;8.55;5.53;;;;;;;6.50;67.20;96577.22;5246452;27;20003;-74
2024/04/19 05:55:55;;;;;;;7.47;4.97;;;;;;;6.50;66.69;96577.22;5245346;27;20010;-75
2024/04/19 05:58:25;;;;;;;11.05;5.82;;;;;;;6.53;66.76;96566.53;5245774;27;20467;-74
2024/04/19 06:00:54;;;;;;;10.45;6.38;;;;;;;6.56;67.00;96563.63;5245624;27;20003;-74
2024/04/19 06:03:26;;;;;;;9.43;6.15;;;;;;;6.63;68.46;96563.81;5266584;27;20003;-74
2024/04/19 06:05:56;;;;;;;12.13;5.85;;;;;;;6.69;67.84;96554.56;5266580;27;20018;-74
2024/04/19 06:08:25;;;;;;;7.82;5.53;;;;;;;6.71;66.90;96544.88;5259415;27;20009;-74
2024/04/19 06:10:54;;;;;;;8.80;5.32;;;;;;;6.71;67.45;96545.69;5263246;27;20003;-74
2024/04/19 06:13:24;;;;;;;10.93;5.97;;;;;;;6.72;67.19;96544.72;5263479;27;19995;-74
2024/04/19 06:15:53;;;;;;;9.43;5.70;;;;;;;6.73;66.83;96542.94;5262745;27;19995;-74
2024/04/19 06:18:22;;;;;;;7.90;5.05;;;;;;;6.72;66.63;96543.91;5255174;27;20328;-74
2024/04/19 06:20:54;;;;;;;7.45;5.32;;;;;;;6.72;66.86;96536.13;5245496;27;20007;-74
2024/04/19 06:23:24;;;;;;;7.32;5.38;;;;;;;6.73;66.93;96543.72;5245998;27;20038;-74
2024/04/19 06:25:55;;;;;;;7.30;5.28;;;;;;;6.76;67.52;96540.03;5250677;27;20011;-74
2024/04/19 06:28:25;;;;;;;7.85;5.40;;;;;;;6.80;66.76;96542.16;5263807;27;20010;-74
2024/04/19 06:30:54;;;;;;;9.20;5.45;;;;;;;6.81;65.89;96538.56;5263029;27;20010;-74
2024/04/19 06:33:23;;;;;;;10.10;5.40;;;;;;;6.80;65.53;96538.75;5261060;27;20003;-74
2024/04/19 06:35:55;;;;;;;8.05;5.15;;;;;;;6.79;65.84;96540.50;5243989;27;20071;-74
2024/04/19 06:38:24;;;;;;;7.77;5.60;;;;;;;6.82;66.04;96531.59;5261769;27;20010;-74
2024/04/19 06:40:54;;;;;;;8.48;5.22;;;;;;;6.85;65.68;96533.88;5262796;27;20003;-75
2024/04/19 06:43:23;;;;;;;8.27;5.05;;;;;;;6.85;65.38;96544.25;5254835;27;20466;-75
2024/04/19 06:45:54;;;;;;;8.50;5.65;;;;;;;6.86;65.17;96532.91;5244672;27;20007;-74
2024/04/19 06:48:23;;;;;;;10.75;5.53;;;;;;;6.88;64.86;96532.75;5244329;27;20010;-74
2024/04/19 06:50:56;;;;;;;7.95;5.40;;;;;;;6.88;65.67;96533.56;5244635;27;20003;-74
2024/04/19 06:53:25;;;;;;;21.50;7.68;;;;;;;6.92;65.15;96541.84;5244681;27;20014;-73
2024/04/19 06:55:55;;;;;;;6.78;5.30;;;;;;;6.97;65.27;96524.00;5246148;27;20007;-74
2024/04/19 06:58:24;;;;;;;7.25;4.95;;;;;;;7.01;64.76;96530.50;5249862;27;20003;-74
2024/04/19 07:00:53;;;;;;;5.93;4.70;;;;;;;7.01;64.55;96515.75;5244223;27;20007;-74
2024/04/19 07:03:42;;;;;;;8.38;5.85;;;;;;;7.03;65.20;96512.19;5244091;27;20459;-74
2024/04/19 07:06:16;;;;;;;5.75;4.45;;;;;;;7.04;63.66;96514.63;5243759;27;20011;-75
2024/04/19 07:08:59;;;;;;;6.53;4.55;;;;;;;7.00;64.09;96503.75;5244392;27;20518;-74
2024/04/19 07:11:25;;;;;;;6.28;4.57;;;;;;;6.98;64.44;96513.47;5244379;27;20014;-74
2024/04/19 07:13:54;;;;;;;6.20;4.90;;;;;;;6.94;64.34;96508.78;5244646;27;20007;-74
2024/04/19 07:16:24;;;;;;;7.47;5.13;;;;;;;6.93;64.95;96507.97;5243708;27;20018;-74
2024/04/19 07:18:53;;;;;;;6.03;4.72;;;;;;;6.93;64.58;96499.38;5244367;27;20330;-74
2024/04/19 07:21:25;;;;;;;5.43;4.10;;;;;;;6.88;64.93;96505.03;5244429;27;20018;-74
2024/04/19 07:23:54;;;;;;;5.95;4.68;;;;;;;6.91;64.77;96496.94;5244176;27;20332;-74
2024/04/19 07:26:23;;;;;;;7.43;4.60;;;;;;;6.94;64.42;96494.03;5243646;27;20014;-74
2024/04/19 07:28:54;;;;;;;8.15;5.20;;;;;;;7.03;64.79;96497.44;5244092;27;20014;-75
2024/04/19 07:31:23;;;;;;;7.15;5.15;;;;;;;7.12;64.80;96491.25;5243693;27;20010;-74
2024/04/19 07:33:52;;;;;;;7.40;4.50;;;;;;;7.22;64.19;96481.53;5244151;27;20003;-75
2024/04/19 07:36:24;;;;;;;9.00;4.20;;;;;;;7.28;63.70;96474.06;5243679;27;20031;-74
2024/04/19 07:38:55;;;;;;;7.47;4.53;;;;;;;7.34;63.78;96470.81;5258519;27;20015;-74
2024/04/19 07:41:24;;;;;;;5.82;4.45;;;;;;;7.39;63.11;96471.13;5258736;27;20003;-74
2024/04/19 07:43:53;;;;;;;7.10;3.58;;;;;;;7.43;63.18;96465.47;5257447;27;20003;-74
2024/04/19 07:46:29;;;;;;;6.75;4.13;;;;;;;7.50;63.41;96449.22;5243193;27;20007;-74
2024/04/19 07:48:59;;;;;;;4.53;3.35;;;;;;;7.57;63.30;96457.97;5243582;27;20014;-75
2024/04/19 07:51:31;;;;;;;7.10;4.43;;;;;;;7.56;62.49;96454.53;5244145;27;20003;-75
2024/04/19 07:54:00;;;;;;;6.20;4.13;;;;;;;7.57;62.23;96453.59;5243952;27;20411;-74
2024/04/19 07:56:32;;;;;;;6.28;3.30;;;;;;;7.53;62.14;96441.91;5242901;27;20573;-74
2024/04/19 07:59:02;;;;;;;7.28;3.58;;;;;;;7.52;62.61;96448.09;5243622;27;20018;-74
2024/04/19 08:01:32;;;;;;;4.95;3.95;;;;;;;7.51;62.05;96438.66;5243249;27;20003;-74
2024/04/19 08:04:01;;;;;;;4.93;3.83;;;;;;;7.47;61.81;96424.41;5243796;27;20007;-75
2024/04/19 08:06:35;;;;;;;4.85;3.72;;;;;;;7.40;61.58;96420.84;5244904;27;20018;-74
2024/04/19 08:09:04;;;;;;;5.57;3.60;;;;;;;7.36;61.85;96429.94;5244574;27;20022;-74
2024/04/19 08:11:34;;;;;;;7.93;3.60;;;;;;;7.33;62.04;96425.09;5244654;27;20018;-74
2024/04/19 08:14:03;;;;;;;4.68;3.70;;;;;;;7.29;62.17;96421.22;5243083;27;20335;-74
2024/04/19 08:16:33;;;;;;;5.18;4.30;;;;;;;7.26;62.10;96424.97;5243292;27;20007;-75
2024/04/19 08:19:02;;;;;;;6.22;3.70;;;;;;;7.24;62.49;96400.97;5243553;27;20082;-75
2024/04/19 08:21:32;;;;;;;9.98;4.55;;;;;;;7.27;62.82;96395.44;5243709;27;20007;-75
2024/04/19 08:24:05;;;;;;;6.25;4.30;;;;;;;7.27;62.51;96405.00;5243374;27;20081;-74
2024/04/19 08:26:34;;;;;;;5.00;3.88;;;;;;;7.25;62.97;96407.75;5242983;27;20479;-74
2024/04/19 08:29:03;;;;;;;4.53;3.42;;;;;;;7.26;62.88;96400.78;5242891;27;20482;-75
2024/04/19 08:31:46;;;;;;;4.88;3.92;;;;;;;7.33;62.89;96384.38;5243433;27;20007;-74
2024/04/19 08:34:15;;;;;;;3.58;3.03;;;;;;;7.38;62.99;96387.28;5242716;27;20003;-74
2024/04/19 08:36:45;;;;;;;5.55;4.00;;;;;;;7.38;62.81;96376.91;5242322;27;20003;-74
2024/04/19 08:39:17;;;;;;;4.38;3.58;;;;;;;7.34;62.36;96378.22;5242924;27;20467;-74
2024/04/19 08:41:50;;;;;;;4.35;3.20;;;;;;;7.35;63.20;96382.44;5243175;27;20003;-75
2024/04/19 08:44:20;;;;;;;5.15;3.58;;;;;;;7.38;62.73;96376.09;5242850;27;20415;-74
2024/04/19 08:46:52;;;;;;;5.18;3.72;;;;;;;7.39;63.85;96388.91;5242365;27;20003;-75
2024/04/19 08:49:19;;;;;;;5.37;3.80;;;;;;;7.41;63.71;96376.59;5243031;27;20007;-74
2024/04/19 08:51:49;;;;;;;5.65;3.35;;;;;;;7.39;63.55;96388.91;5243193;27;20007;-75
2024/04/19 08:54:42;;;;;;;4.05;3.17;;;;;;;7.39;63.76;96362.97;5242671;27;20019;-74
2024/04/19 08:57:13;;;;;;;3.92;3.03;;;;;;;7.34;63.60;96359.25;5244204;27;20003;-74
2024/04/19 08:59:43;;;;;;;5.47;3.08;;;;;;;7.25;64.04;96355.88;5246905;27;20007;-75
2024/04/19 09:02:12;;;;;;;4.30;3.03;;;;;;;7.23;64.40;96352.63;5246403;27;20018;-74
2024/04/19 09:04:42;;;;;;;6.32;3.20;;;;;;;7.21;64.43;96346.78;5246984;27;20336;-75
2024/04/19 09:07:11;;;;;;;9.65;3.92;;;;;;;7.18;65.12;96355.72;5246674;27;20010;-74
2024/04/19 09:09:47;;;;;;;2.88;2.58;;;;;;;7.19;64.94;96361.72;5246131;27;20514;-74
2024/04/19 09:12:16;;;;;;;4.55;2.90;;;;;;;7.20;64.97;96343.41;5246511;27;20007;-74
2024/04/19 09:14:47;;;;;;;4.43;3.08;;;;;;;7.15;64.67;96337.91;5246075;27;20003;-75
2024/04/19 09:17:16;;;;;;;5.88;3.25;;;;;;;7.13;64.56;96339.06;5246046;27;20003;-75
2024/04/19 09:19:45;;;;;;;4.90;3.53;;;;;;;7.10;65.23;96329.78;5245675;27;20059;-75
2024/04/19 09:22:15;;;;;;;4.30;2.92;;;;;;;7.07;65.04;96322.38;5245575;27;20022;-75
2024/04/19 09:24:52;;;;;;;3.58;3.00;;;;;;;7.06;65.42;96315.53;5245463;27;20003;-75
2024/04/19 09:27:22;;;;;;;3.15;2.83;;;;;;;7.11;66.13;96318.47;5245134;27;20082;-75
2024/04/19 09:29:50;;;;;;;5.13;2.90;;;;;;;7.19;66.32;96315.03;5245463;27;20047;-75
2024/04/19 09:32:22;;;;;;;3.65;3.10;;;;;;;7.20;65.98;96301.09;5245906;27;20003;-75
2024/04/19 09:34:51;;;;;;;6.82;3.00;;;;;;;7.19;66.06;96297.69;5245482;27;20003;-75
2024/04/19 09:37:21;;;;;;;5.57;3.65;;;;;;;7.18;65.58;96295.25;5245168;27;20014;-75
2024/04/19 09:39:54;;;;;;;3.30;3.00;;;;;;;7.16;66.29;96302.41;5245218;27;20464;-75
2024/04/19 09:42:24;;;;;;;3.42;3.13;;;;;;;7.13;66.44;96285.38;5245567;27;20010;-75
2024/04/19 09:44:54;;;;;;;3.97;3.08;;;;;;;7.11;66.11;96286.53;5245206;27;20018;-76
2024/04/19 09:47:25;;;;;;;3.15;2.85;;;;;;;7.11;66.35;96286.53;5245214;27;20027;-75
2024/04/19 09:49:58;;;;;;;5.25;3.65;;;;;;;7.09;66.63;96275.53;5245139;27;20039;-75
2024/04/19 09:52:33;;;;;;;4.32;3.35;;;;;;;7.10;67.13;96279.72;5245125;27;20051;-75
2024/04/19 09:55:11;;;;;;;4.60;3.03;;;;;;;7.10;67.52;96277.13;5245084;27;20018;-75
2024/04/19 09:57:45;;;;;;;5.32;3.08;;;;;;;7.08;66.94;96268.69;5245273;27;20007;-75
2024/04/19 10:00:17;;;;;;;4.20;3.60;;;;;;;6.99;66.42;96273.91;5245236;27;20013;-75
2024/04/19 10:02:46;;;;;;;4.20;2.92;;;;;;;6.95;67.15;96266.63;5244981;27;20014;-75
2024/04/19 10:05:16;;;;;;;3.05;2.75;;;;;;;7.00;68.18;96254.78;5244755;27;20046;-74
2024/04/19 10:07:46;;;;;;;3.35;2.92;;;;;;;7.08;68.05;96255.72;5245100;27;20014;-75
2024/04/19 10:10:18;;;;;;;4.15;3.17;;;;;;;7.09;67.88;96254.78;5244998;27;20010;-75
2024/04/19 10:12:47;;;;;;;3.75;2.97;;;;;;;7.12;67.98;96246.63;5244782;27;20015;-75
2024/04/19 10:15:21;;;;;;;4.40;3.10;;;;;;;7.15;67.40;96238.50;5245199;27;19999;-75
2024/04/19 10:17:51;;;;;;;4.05;3.13;;;;;;;7.12;67.43;96244.03;5245177;27;20018;-75
2024/04/19 10:20:24;;;;;;;4.07;3.25;;;;;;;7.03;67.04;96238.09;5245166;27;20364;-75
2024/04/19 10:22:54;;;;;;;3.75;2.70;;;;;;;6.98;67.62;96223.03;5244663;27;20007;-75
2024/04/19 10:25:26;;;;;;;3.42;3.03;;;;;;;7.01;67.75;96214.09;5251182;27;20003;-75
2024/04/19 10:27:59;;;;;;;5.20;3.10;;;;;;;7.00;68.44;96226.28;5244719;27;20003;-75
2024/04/19 10:30:32;;;;;;;3.00;2.40;;;;;;;7.00;68.02;96217.69;5244434;27;20007;-75
2024/04/19 10:33:06;;;;;;;3.08;2.35;;;;;;;7.00;68.07;96213.31;5245023;27;20481;-75
2024/04/19 10:35:37;;;;;;;4.72;2.33;;;;;;;7.00;67.80;96215.91;5244520;27;20332;-75
2024/04/19 10:38:06;;;;;;;2.40;2.20;;;;;;;6.99;67.89;96206.47;5244776;27;20007;-75
2024/04/19 10:40:38;;;;;;;2.13;1.98;;;;;;;6.95;67.84;96200.03;5244846;27;19999;-75
2024/04/19 10:43:09;;;;;;;3.47;2.35;;;;;;;6.90;67.28;96206.69;5244699;27;20014;-75
2024/04/19 10:45:38;;;;;;;2.30;2.10;;;;;;;6.85;68.14;96203.81;5244112;27;20003;-75
2024/04/19 10:48:09;;;;;;;4.22;2.55;;;;;;;6.80;67.97;96186.97;5244496;27;20003;-75
2024/04/19 10:50:39;;;;;;;3.38;2.88;;;;;;;6.81;68.81;96185.19;5244902;27;20003;-74
2024/04/19 10:53:08;;;;;;;4.20;2.33;;;;;;;6.84;68.97;96174.47;5244549;27;20446;-75
2024/04/19 10:55:40;;;;;;;3.40;2.85;;;;;;;6.85;68.73;96168.31;5243932;27;20035;-75
2024/04/19 10:58:10;;;;;;;3.72;3.00;;;;;;;6.85;69.21;96165.72;5244739;27;20094;-75
2024/04/19 11:00:39;;;;;;;2.60;2.40;;;;;;;6.88;69.04;96167.16;5244412;27;20014;-75
2024/04/19 11:03:11;;;;;;;2.10;1.90;;;;;;;6.83;68.64;96154.72;5244747;27;20014;-75
2024/04/19 11:05:48;;;;;;;2.58;2.38;;;;;;;6.79;69.01;96151.63;5244471;27;20003;-75
2024/04/19 11:08:18;;;;;;;3.53;2.40;;;;;;;6.83;69.04;96159.09;5244532;27;20401;-75
2024/04/19 11:10:50;;;;;;;1.75;1.65;;;;;;;6.84;69.13;96145.94;5244507;27;20003;-75
2024/04/19 11:13:19;;;;;;;2.20;2.00;;;;;;;6.87;68.70;96150.81;5244458;27;20483;-75
2024/04/19 11:15:49;;;;;;;2.10;1.90;;;;;;;6.83;69.02;96139.16;5243934;27;20660;-74
2024/04/19 11:18:28;;;;;;;3.05;2.00;;;;;;;6.82;69.13;96127.16;5244989;27;20011;-75
2024/04/19 11:20:58;;;;;;;1.98;1.77;;;;;;;6.84;69.93;96124.41;5244307;27;20046;-75
2024/04/19 11:23:37;;;;;;;4.75;2.80;;;;;;;6.89;70.28;96132.50;5245056;27;20003;-75
2024/04/19 11:26:09;;;;;;;17.20;10.68;;;;;;;6.96;71.11;96123.84;5244363;27;20082;-75
2024/04/19 11:28:38;;;;;;;3.47;3.10;;;;;;;6.99;70.15;96118.31;5246459;27;20003;-75
2024/04/19 11:31:11;;;;;;;2.22;2.00;;;;;;;7.00;69.76;96127.72;5265482;27;19999;-74
2024/04/19 11:33:40;;;;;;;;;;;;;;;7.04;70.10;96122.19;5265074;27;19995;-74
2024/04/19 11:36:11;;;;;;;2.53;2.33;;;;;;;7.04;69.60;96110.03;5264150;27;19968;-74
2024/04/19 11:38:40;;;;;;;1.95;1.75;;;;;;;7.03;68.94;96111.00;5248424;27;20057;-75
2024/04/19 11:41:15;;;;;;;2.78;2.20;;;;;;;6.94;69.99;96105.06;5244255;27;20003;-75
2024/04/19 11:43:44;;;;;;;2.03;1.80;;;;;;;6.93;69.60;96108.66;5246703;27;20015;-75
2024/04/19 11:46:21;;;;;;;3.13;2.60;;;;;;;6.91;70.18;96105.41;5246451;27;20003;-74
2024/04/19 11:48:50;;;;;;;2.40;2.10;;;;;;;6.90;69.90;96106.38;5244253;27;20007;-75
2024/04/19 11:51:21;;;;;;;2.10;1.90;;;;;;;6.90;69.74;96103.00;5244504;27;20081;-75
2024/04/19 11:53:50;;;;;;;2.30;2.10;;;;;;;6.86;69.63;96093.94;5243784;27;20347;-75
2024/04/19 11:56:22;;;;;;;3.03;2.72;;;;;;;6.87;70.30;96098.16;5243285;27;20467;-75
2024/04/19 11:58:52;;;;;;;2.80;2.58;;;;;;;6.83;69.80;96094.28;5244512;27;20002;-75
2024/04/19 12:01:22;;;;;;;3.65;2.08;;;;;;;6.82;70.07;96083.09;5244756;27;20007;-75